createdAt,value
2023-03-30T00:00:13.704Z,1007.82
2023-03-30T00:01:13.793Z,1007.81
2023-03-30T00:02:13.855Z,1007.77
2023-03-30T00:03:14.233Z,1007.73
2023-03-30T00:04:13.723Z,1007.75
2023-03-30T00:05:13.357Z,1007.72
2023-03-30T00:06:14.224Z,1007.75
2023-03-30T00:07:13.523Z,1007.75
2023-03-30T00:08:13.789Z,1007.76
2023-03-30T00:09:13.737Z,1007.74
2023-03-30T00:10:13.604Z,1007.71
2023-03-30T00:11:13.756Z,1007.75
2023-03-30T00:12:14.109Z,1007.67
2023-03-30T00:13:13.158Z,1007.69
2023-03-30T00:14:13.267Z,1007.68
2023-03-30T00:15:13.807Z,1007.65
2023-03-30T00:16:13.989Z,1007.63
2023-03-30T00:17:13.258Z,1007.60
2023-03-30T00:18:13.359Z,1007.56
2023-03-30T00:19:13.502Z,1007.61
2023-03-30T00:20:13.492Z,1007.58
2023-03-30T00:21:13.741Z,1007.58
2023-03-30T00:22:13.804Z,1007.55
2023-03-30T00:23:13.760Z,1007.51
2023-03-30T00:24:13.797Z,1007.46
2023-03-30T00:25:13.936Z,1007.45
2023-03-30T00:26:12.807Z,1007.47
2023-03-30T00:27:14.000Z,1007.48
2023-03-30T00:28:12.996Z,1007.42
2023-03-30T00:29:12.929Z,1007.36
2023-03-30T00:30:13.013Z,1007.37
2023-03-30T00:31:13.044Z,1007.43
2023-03-30T00:32:13.030Z,1007.49
2023-03-30T00:33:13.236Z,1007.49
2023-03-30T00:34:15.632Z,1007.50
2023-03-30T00:35:13.591Z,1007.45
2023-03-30T00:36:13.835Z,1007.45
2023-03-30T00:37:12.999Z,1007.44
2023-03-30T00:38:13.064Z,1007.41
2023-03-30T00:39:12.933Z,1007.40
2023-03-30T00:40:12.844Z,1007.35
2023-03-30T00:41:13.892Z,1007.30
2023-03-30T00:42:12.813Z,1007.30
2023-03-30T00:43:13.699Z,1007.29
2023-03-30T00:44:14.035Z,1007.35
2023-03-30T00:45:13.155Z,1007.34
2023-03-30T00:46:13.235Z,1007.30
2023-03-30T00:47:13.365Z,1007.33
2023-03-30T00:48:13.196Z,1007.33
2023-03-30T00:49:13.148Z,1007.34
2023-03-30T00:50:12.964Z,1007.33
2023-03-30T00:51:13.214Z,1007.32
2023-03-30T00:52:13.082Z,1007.33
2023-03-30T00:53:13.177Z,1007.25
2023-03-30T00:54:13.192Z,1007.25
2023-03-30T00:55:13.067Z,1007.20
2023-03-30T00:56:13.129Z,1007.15
2023-03-30T00:57:13.160Z,1007.18
2023-03-30T00:58:13.258Z,1007.14
2023-03-30T00:59:13.495Z,1007.11
2023-03-30T01:00:13.519Z,1007.10
2023-03-30T01:01:13.881Z,1007.10
2023-03-30T01:02:12.956Z,1007.06
2023-03-30T01:03:13.121Z,1007.09
2023-03-30T01:04:13.165Z,1007.06
2023-03-30T01:05:13.108Z,1007.02
2023-03-30T01:06:13.027Z,1007.03
2023-03-30T01:07:13.067Z,1007.01
2023-03-30T01:08:12.980Z,1007.05
2023-03-30T01:09:12.965Z,1007.05
2023-03-30T01:10:12.889Z,1007.01
2023-03-30T01:11:12.865Z,1006.97
2023-03-30T01:12:14.451Z,1006.95
2023-03-30T01:13:13.712Z,1006.94
2023-03-30T01:14:13.721Z,1006.87
2023-03-30T01:15:13.699Z,1006.90
2023-03-30T01:16:13.842Z,1006.89
2023-03-30T01:17:14.180Z,1006.92
2023-03-30T01:18:13.462Z,1006.90
2023-03-30T01:19:13.448Z,1006.89
2023-03-30T01:20:13.619Z,1006.87
2023-03-30T01:21:13.558Z,1006.82
2023-03-30T01:22:13.901Z,1006.78
2023-03-30T01:23:13.267Z,1006.77
2023-03-30T01:24:13.198Z,1006.76
2023-03-30T01:25:13.240Z,1006.71
2023-03-30T01:26:13.223Z,1006.69
2023-03-30T01:27:13.131Z,1006.70
2023-03-30T01:28:13.018Z,1006.73
2023-03-30T01:29:13.549Z,1006.68
2023-03-30T01:30:13.742Z,1006.70
2023-03-30T01:31:13.733Z,1006.73
2023-03-30T01:32:13.758Z,1006.77
2023-03-30T01:33:13.656Z,1006.82
2023-03-30T01:34:13.530Z,1006.81
2023-03-30T01:35:13.525Z,1006.80
2023-03-30T01:36:13.690Z,1006.84
2023-03-30T01:37:13.620Z,1006.80
2023-03-30T01:38:13.915Z,1006.72
2023-03-30T01:39:13.372Z,1006.66
2023-03-30T01:40:13.277Z,1006.66
2023-03-30T01:41:13.333Z,1006.68
2023-03-30T01:42:13.239Z,1006.70
2023-03-30T01:43:13.568Z,1006.67
2023-03-30T01:44:13.460Z,1006.68
2023-03-30T01:45:13.547Z,1006.69
2023-03-30T01:46:13.859Z,1006.58
2023-03-30T01:47:14.235Z,1006.58
2023-03-30T01:48:13.494Z,1006.59
2023-03-30T01:49:13.733Z,1006.64
2023-03-30T01:50:13.730Z,1006.66
2023-03-30T01:51:13.965Z,1006.64
2023-03-30T01:52:13.052Z,1006.67
2023-03-30T01:53:12.994Z,1006.68
2023-03-30T01:54:13.079Z,1006.60
2023-03-30T01:55:13.354Z,1006.63
2023-03-30T01:56:13.488Z,1006.67
2023-03-30T01:57:13.755Z,1006.72
2023-03-30T01:58:13.714Z,1006.72
2023-03-30T01:59:14.057Z,1006.72
2023-03-30T02:00:13.003Z,1006.72
2023-03-30T02:01:13.209Z,1006.72
2023-03-30T02:02:13.389Z,1006.72
2023-03-30T02:03:13.520Z,1006.70
2023-03-30T02:04:13.509Z,1006.71
2023-03-30T02:05:13.514Z,1006.68
2023-03-30T02:06:13.710Z,1006.72
2023-03-30T02:07:13.713Z,1006.71
2023-03-30T02:08:13.693Z,1006.73
2023-03-30T02:09:14.140Z,1006.73
2023-03-30T02:10:13.252Z,1006.80
2023-03-30T02:11:13.196Z,1006.71
2023-03-30T02:12:13.163Z,1006.80
2023-03-30T02:13:13.193Z,1006.76
2023-03-30T02:14:13.214Z,1006.75
2023-03-30T02:15:14.309Z,1006.78
2023-03-30T02:16:13.834Z,1006.77
2023-03-30T02:17:13.129Z,1006.73
2023-03-30T02:18:13.041Z,1006.71
2023-03-30T02:19:12.911Z,1006.71
2023-03-30T02:20:13.018Z,1006.69
2023-03-30T02:21:13.213Z,1006.65
2023-03-30T02:22:13.165Z,1006.67
2023-03-30T02:23:13.302Z,1006.66
2023-03-30T02:24:18.544Z,1006.61
2023-03-30T02:25:13.530Z,1006.65
2023-03-30T02:26:13.424Z,1006.66
2023-03-30T02:27:13.754Z,1006.65
2023-03-30T02:28:13.916Z,1006.64
2023-03-30T02:29:13.205Z,1006.61
2023-03-30T02:30:13.345Z,1006.53
2023-03-30T02:31:13.384Z,1006.55
2023-03-30T02:32:13.435Z,1006.51
2023-03-30T02:33:13.375Z,1006.43
2023-03-30T02:34:13.988Z,1006.52
2023-03-30T02:35:12.842Z,1006.49
2023-03-30T02:36:14.109Z,1006.48
2023-03-30T02:37:13.388Z,1006.54
2023-03-30T02:38:13.337Z,1006.52
2023-03-30T02:39:14.545Z,1006.51
2023-03-30T02:40:13.584Z,1006.49
2023-03-30T02:41:13.436Z,1006.50
2023-03-30T02:42:14.013Z,1006.46
2023-03-30T02:43:12.933Z,1006.46
2023-03-30T02:44:12.960Z,1006.43
2023-03-30T02:45:12.912Z,1006.39
2023-03-30T02:46:12.930Z,1006.40
2023-03-30T02:47:12.820Z,1006.34
2023-03-30T02:48:13.880Z,1006.33
2023-03-30T02:49:13.788Z,1006.28
2023-03-30T02:50:14.153Z,1006.29
2023-03-30T02:51:13.076Z,1006.27
2023-03-30T02:52:12.922Z,1006.25
2023-03-30T02:53:12.901Z,1006.21
2023-03-30T02:54:13.033Z,1006.16
2023-03-30T02:55:13.030Z,1006.16
2023-03-30T02:56:13.159Z,1006.14
2023-03-30T02:57:13.082Z,1006.15
2023-03-30T02:58:13.233Z,1006.07
2023-03-30T02:59:13.567Z,1006.06
2023-03-30T03:00:13.760Z,1006.07
2023-03-30T03:01:13.738Z,1006.02
2023-03-30T03:02:14.171Z,1006.00
2023-03-30T03:03:13.729Z,1006.02
2023-03-30T03:04:13.743Z,1006.03
2023-03-30T03:05:13.808Z,1005.99
2023-03-30T03:06:13.822Z,1006.01
2023-03-30T03:07:14.315Z,1006.01
2023-03-30T03:08:13.278Z,1006.00
2023-03-30T03:09:13.367Z,1005.95
2023-03-30T03:10:13.654Z,1005.99
2023-03-30T03:11:13.927Z,1005.93
2023-03-30T03:12:12.886Z,1005.91
2023-03-30T03:13:13.070Z,1005.87
2023-03-30T03:14:13.017Z,1005.86
2023-03-30T03:15:12.991Z,1005.88
2023-03-30T03:16:12.969Z,1005.90
2023-03-30T03:17:13.069Z,1005.91
2023-03-30T03:18:13.055Z,1005.91
2023-03-30T03:19:13.036Z,1005.89
2023-03-30T03:20:12.939Z,1005.88
2023-03-30T03:21:12.925Z,1005.93
2023-03-30T03:22:12.804Z,1005.94
2023-03-30T03:23:13.728Z,1005.89
2023-03-30T03:24:13.621Z,1005.85
2023-03-30T03:25:13.739Z,1005.84
2023-03-30T03:26:13.708Z,1005.91
2023-03-30T03:27:13.817Z,1005.91
2023-03-30T03:28:13.936Z,1005.86
2023-03-30T03:29:12.782Z,1005.86
2023-03-30T03:30:13.643Z,1005.86
2023-03-30T03:31:13.545Z,1005.84
2023-03-30T03:32:13.699Z,1005.74
2023-03-30T03:33:13.627Z,1005.80
2023-03-30T03:34:13.612Z,1005.88
2023-03-30T03:35:13.679Z,1005.89
2023-03-30T03:36:13.672Z,1005.91
2023-03-30T03:37:13.593Z,1005.89
2023-03-30T03:38:13.759Z,1005.95
2023-03-30T03:39:13.858Z,1006.04
2023-03-30T03:40:13.828Z,1006.03
2023-03-30T03:41:13.847Z,1006.02
2023-03-30T03:42:13.894Z,1006.04
2023-03-30T03:43:13.759Z,1005.96
2023-03-30T03:44:13.868Z,1005.99
2023-03-30T03:45:16.047Z,1006.02
2023-03-30T03:46:13.077Z,1005.97
2023-03-30T03:47:15.153Z,1006.07
2023-03-30T03:48:13.446Z,1006.02
2023-03-30T03:49:13.344Z,1005.98
2023-03-30T03:50:13.271Z,1005.98
2023-03-30T03:51:13.583Z,1006.06
2023-03-30T03:52:13.521Z,1006.04
2023-03-30T03:53:13.542Z,1006.05
2023-03-30T03:54:13.748Z,1006.06
2023-03-30T03:55:13.688Z,1005.99
2023-03-30T03:56:13.856Z,1006.06
2023-03-30T03:57:13.843Z,1006.05
2023-03-30T03:58:13.096Z,1006.03
2023-03-30T03:59:13.251Z,1006.04
2023-03-30T04:00:13.195Z,1006.05
2023-03-30T04:01:13.081Z,1006.00
2023-03-30T04:02:13.325Z,1005.92
2023-03-30T04:03:13.444Z,1005.94
2023-03-30T04:04:13.490Z,1005.96
2023-03-30T04:05:13.505Z,1005.75
2023-03-30T04:06:13.450Z,1005.86
2023-03-30T04:07:13.336Z,1005.84
2023-03-30T04:08:13.318Z,1005.75
2023-03-30T04:09:13.325Z,1005.79
2023-03-30T04:10:14.777Z,1005.83
2023-03-30T04:11:13.960Z,1005.83
2023-03-30T04:12:12.885Z,1005.79
2023-03-30T04:13:12.816Z,1005.76
2023-03-30T04:14:14.537Z,1005.77
2023-03-30T04:15:13.944Z,1005.75
2023-03-30T04:16:12.945Z,1005.75
2023-03-30T04:17:12.959Z,1005.79
2023-03-30T04:18:13.523Z,1005.80
2023-03-30T04:19:13.556Z,1005.83
2023-03-30T04:20:13.553Z,1005.88
2023-03-30T04:21:13.597Z,1005.89
2023-03-30T04:22:13.838Z,1005.94
2023-03-30T04:23:14.088Z,1005.95
2023-03-30T04:24:13.224Z,1005.91
2023-03-30T04:25:13.359Z,1005.81
2023-03-30T04:26:13.504Z,1005.78
2023-03-30T04:27:13.336Z,1005.67
2023-03-30T04:28:13.589Z,1005.63
2023-03-30T04:29:14.011Z,1005.62
2023-03-30T04:31:17.752Z,1005.59
2023-03-30T04:32:14.110Z,1005.59
2023-03-30T04:33:13.519Z,1005.55
2023-03-30T04:34:13.427Z,1005.58
2023-03-30T04:35:13.650Z,1005.51
2023-03-30T04:36:13.663Z,1005.56
2023-03-30T04:37:14.001Z,1005.59
2023-03-30T04:38:13.062Z,1005.51
2023-03-30T04:39:13.300Z,1005.50
2023-03-30T04:40:13.235Z,1005.46
2023-03-30T04:41:13.338Z,1005.45
2023-03-30T04:42:13.515Z,1005.52
2023-03-30T04:43:13.518Z,1005.56
2023-03-30T04:44:13.938Z,1005.51
2023-03-30T04:45:13.013Z,1005.53
2023-03-30T04:46:12.993Z,1005.47
2023-03-30T04:47:12.984Z,1005.53
2023-03-30T04:48:13.076Z,1005.47
2023-03-30T04:49:13.153Z,1005.48
2023-03-30T04:50:13.296Z,1005.44
2023-03-30T04:51:13.399Z,1005.46
2023-03-30T04:52:13.505Z,1005.44
2023-03-30T04:53:13.362Z,1005.44
2023-03-30T04:54:13.319Z,1005.45
2023-03-30T04:55:13.334Z,1005.46
2023-03-30T04:56:13.379Z,1005.46
2023-03-30T04:57:13.620Z,1005.44
2023-03-30T04:58:13.505Z,1005.46
2023-03-30T04:59:13.531Z,1005.47
2023-03-30T05:00:13.438Z,1005.43
2023-03-30T05:01:13.669Z,1005.48
2023-03-30T05:02:13.649Z,1005.44
2023-03-30T05:03:13.762Z,1005.44
2023-03-30T05:04:13.518Z,1005.44
2023-03-30T05:05:13.657Z,1005.45
2023-03-30T05:06:14.044Z,1005.47
2023-03-30T05:07:13.151Z,1005.48
2023-03-30T05:08:13.028Z,1005.51
2023-03-30T05:09:12.969Z,1005.58
2023-03-30T05:10:12.944Z,1005.54
2023-03-30T05:11:12.847Z,1005.54
2023-03-30T05:12:13.675Z,1005.61
2023-03-30T05:13:13.668Z,1005.68
2023-03-30T05:14:13.559Z,1005.65
2023-03-30T05:15:13.630Z,1005.63
2023-03-30T05:16:13.632Z,1005.67
2023-03-30T05:17:13.758Z,1005.59
2023-03-30T05:18:14.020Z,1005.55
2023-03-30T05:19:12.952Z,1005.57
2023-03-30T05:20:12.914Z,1005.59
2023-03-30T05:21:12.908Z,1005.54
2023-03-30T05:22:17.925Z,1005.60
2023-03-30T05:23:13.033Z,1005.59
2023-03-30T05:24:12.999Z,1005.55
2023-03-30T05:25:13.567Z,1005.53
2023-03-30T05:26:13.557Z,1005.49
2023-03-30T05:27:13.479Z,1005.50
2023-03-30T05:28:13.334Z,1005.47
2023-03-30T05:29:13.262Z,1005.48
2023-03-30T05:30:13.157Z,1005.49
2023-03-30T05:31:13.637Z,1005.46
2023-03-30T05:32:13.978Z,1005.48
2023-03-30T05:33:12.784Z,1005.51
2023-03-30T05:34:14.008Z,1005.45
2023-03-30T05:35:13.078Z,1005.47
2023-03-30T05:36:13.287Z,1005.44
2023-03-30T05:37:13.371Z,1005.45
2023-03-30T05:38:13.825Z,1005.41
2023-03-30T05:39:13.901Z,1005.39
2023-03-30T05:40:13.137Z,1005.42
2023-03-30T05:41:13.231Z,1005.45
2023-03-30T05:42:13.405Z,1005.52
2023-03-30T05:43:13.400Z,1005.48
2023-03-30T05:44:13.647Z,1005.54
2023-03-30T05:45:14.505Z,1005.51
2023-03-30T05:46:13.894Z,1005.57
2023-03-30T05:47:13.062Z,1005.58
2023-03-30T05:48:13.340Z,1005.61
2023-03-30T05:49:13.644Z,1005.65
2023-03-30T05:50:13.852Z,1005.61
2023-03-30T05:51:13.765Z,1005.64
2023-03-30T05:52:14.172Z,1005.65
2023-03-30T05:53:13.085Z,1005.61
2023-03-30T05:54:13.112Z,1005.61
2023-03-30T05:55:13.382Z,1005.66
2023-03-30T05:56:13.220Z,1005.65
2023-03-30T05:57:13.309Z,1005.60
2023-03-30T05:58:13.362Z,1005.63
2023-03-30T05:59:13.403Z,1005.55
2023-03-30T06:00:13.421Z,1005.63
2023-03-30T06:01:13.423Z,1005.69
2023-03-30T06:02:13.529Z,1005.66
2023-03-30T06:03:13.846Z,1005.68
2023-03-30T06:04:13.900Z,1005.64
2023-03-30T06:05:13.257Z,1005.66
2023-03-30T06:06:13.481Z,1005.73
2023-03-30T06:07:13.523Z,1005.76
2023-03-30T06:08:13.900Z,1005.80
2023-03-30T06:09:12.796Z,1005.80
2023-03-30T06:10:14.011Z,1005.80
2023-03-30T06:11:12.939Z,1005.81
2023-03-30T06:12:13.373Z,1005.81
2023-03-30T06:13:13.647Z,1005.84
2023-03-30T06:14:14.059Z,1005.76
2023-03-30T06:15:13.659Z,1005.70
2023-03-30T06:16:13.520Z,1005.71
2023-03-30T06:17:13.709Z,1005.70
2023-03-30T06:18:13.680Z,1005.69
2023-03-30T06:19:13.673Z,1005.75
2023-03-30T06:20:13.595Z,1005.82
2023-03-30T06:21:13.472Z,1005.82
2023-03-30T06:22:13.318Z,1005.79
2023-03-30T06:23:13.201Z,1005.73
2023-03-30T06:24:13.100Z,1005.69
2023-03-30T06:25:13.141Z,1005.73
2023-03-30T06:26:13.586Z,1005.76
2023-03-30T06:27:14.029Z,1005.78
2023-03-30T06:28:12.885Z,1005.73
2023-03-30T06:29:14.223Z,1005.79
2023-03-30T06:30:13.579Z,1005.82
2023-03-30T06:31:13.544Z,1005.80
2023-03-30T06:32:13.613Z,1005.78
2023-03-30T06:33:13.663Z,1005.74
2023-03-30T06:34:13.644Z,1005.74
2023-03-30T06:35:13.762Z,1005.67
2023-03-30T06:36:13.673Z,1005.73
2023-03-30T06:37:13.605Z,1005.70
2023-03-30T06:38:13.780Z,1005.71
2023-03-30T06:39:13.633Z,1005.77
2023-03-30T06:40:13.835Z,1005.72
2023-03-30T06:41:13.857Z,1005.71
2023-03-30T06:42:14.002Z,1005.70
2023-03-30T06:43:13.359Z,1005.68
2023-03-30T06:44:13.281Z,1005.70
2023-03-30T06:45:13.256Z,1005.66
2023-03-30T06:46:13.358Z,1005.70
2023-03-30T06:47:13.508Z,1005.67
2023-03-30T06:48:13.662Z,1005.75
2023-03-30T06:49:13.669Z,1005.72
2023-03-30T06:50:13.595Z,1005.72
2023-03-30T06:51:13.930Z,1005.72
2023-03-30T06:52:13.098Z,1005.71
2023-03-30T06:53:13.076Z,1005.75
2023-03-30T06:54:13.041Z,1005.84
2023-03-30T06:55:13.024Z,1005.80
2023-03-30T06:56:13.383Z,1005.78
2023-03-30T06:57:13.480Z,1005.80
2023-03-30T06:58:13.695Z,1005.73
2023-03-30T06:59:13.597Z,1005.76
2023-03-30T07:00:14.029Z,1005.71
2023-03-30T07:01:13.050Z,1005.79
2023-03-30T07:02:13.037Z,1005.71
2023-03-30T07:03:13.070Z,1005.78
2023-03-30T07:04:13.257Z,1005.77
2023-03-30T07:05:13.566Z,1005.81
2023-03-30T07:06:13.850Z,1005.83
2023-03-30T07:07:14.063Z,1005.86
2023-03-30T07:08:13.068Z,1005.81
2023-03-30T07:09:13.224Z,1005.86
2023-03-30T07:10:13.336Z,1005.88
2023-03-30T07:11:13.438Z,1005.83
2023-03-30T07:12:13.729Z,1005.82
2023-03-30T07:13:13.897Z,1005.80
2023-03-30T07:14:12.846Z,1005.81
2023-03-30T07:15:13.950Z,1005.80
2023-03-30T07:16:12.804Z,1005.80
2023-03-30T07:17:13.861Z,1005.83
2023-03-30T07:18:12.955Z,1005.79
2023-03-30T07:19:13.105Z,1005.75
2023-03-30T07:20:13.229Z,1005.78
2023-03-30T07:21:13.125Z,1005.81
2023-03-30T07:22:13.527Z,1005.85
2023-03-30T07:23:13.864Z,1005.80
2023-03-30T07:24:13.123Z,1005.81
2023-03-30T07:25:13.058Z,1005.92
2023-03-30T07:26:13.128Z,1005.88
2023-03-30T07:27:13.335Z,1005.87
2023-03-30T07:28:13.218Z,1005.89
2023-03-30T07:29:13.531Z,1005.88
2023-03-30T07:30:21.366Z,1005.84
2023-03-30T07:31:13.166Z,1005.92
2023-03-30T07:32:13.433Z,1005.92
2023-03-30T07:33:14.066Z,1005.90
2023-03-30T07:34:13.322Z,1005.87
2023-03-30T07:35:13.259Z,1005.93
2023-03-30T07:36:13.282Z,1005.91
2023-03-30T07:37:13.622Z,1005.89
2023-03-30T07:38:13.606Z,1005.95
2023-03-30T07:39:13.628Z,1005.86
2023-03-30T07:40:14.170Z,1006.04
2023-03-30T07:41:13.218Z,1005.80
2023-03-30T07:42:13.252Z,1006.02
2023-03-30T07:43:13.622Z,1005.97
2023-03-30T07:44:13.610Z,1006.04
2023-03-30T07:45:16.086Z,1005.93
2023-03-30T07:46:13.833Z,1006.04
2023-03-30T07:47:13.997Z,1005.93
2023-03-30T07:48:13.061Z,1006.09
2023-03-30T07:49:13.039Z,1006.04
2023-03-30T07:50:13.084Z,1005.98
2023-03-30T07:51:13.110Z,1006.08
2023-03-30T07:52:13.126Z,1005.80
2023-03-30T07:53:13.339Z,1005.99
2023-03-30T07:54:13.251Z,1006.02
2023-03-30T07:55:13.138Z,1006.01
2023-03-30T07:56:13.190Z,1006.01
2023-03-30T07:57:13.217Z,1006.03
2023-03-30T07:58:13.525Z,1006.10
2023-03-30T07:59:13.469Z,1006.05
2023-03-30T08:00:13.377Z,1005.97
2023-03-30T08:01:13.309Z,1006.04
2023-03-30T08:02:13.217Z,1006.09
2023-03-30T08:03:13.641Z,1006.05
2023-03-30T08:04:14.126Z,1006.10
2023-03-30T08:05:13.375Z,1005.99
2023-03-30T08:06:13.250Z,1006.01
2023-03-30T08:07:13.368Z,1006.06
2023-03-30T08:08:13.606Z,1006.12
2023-03-30T08:09:14.089Z,1005.99
2023-03-30T08:10:13.003Z,1006.19
2023-03-30T08:11:13.341Z,1006.13
2023-03-30T08:12:13.326Z,1006.02
2023-03-30T08:13:13.509Z,1006.24
2023-03-30T08:14:13.701Z,1006.16
2023-03-30T08:15:13.560Z,1006.09
2023-03-30T08:16:13.629Z,1006.21
2023-03-30T08:17:13.847Z,1006.20
2023-03-30T08:18:13.919Z,1006.24
2023-03-30T08:19:12.987Z,1006.21
2023-03-30T08:20:12.966Z,1006.30
2023-03-30T08:21:13.058Z,1006.28
2023-03-30T08:22:13.322Z,1006.27
2023-03-30T08:23:13.159Z,1006.29
2023-03-30T08:24:13.120Z,1006.25
2023-03-30T08:25:13.275Z,1006.30
2023-03-30T08:26:13.726Z,1006.31
2023-03-30T08:27:14.292Z,1006.23
2023-03-30T08:28:13.418Z,1006.28
2023-03-30T08:29:13.455Z,1006.36
2023-03-30T08:30:13.600Z,1006.23
2023-03-30T08:31:13.518Z,1006.30
2023-03-30T08:32:13.650Z,1006.32
2023-03-30T08:33:13.690Z,1006.29
2023-03-30T08:34:13.707Z,1006.38
2023-03-30T08:35:13.695Z,1006.30
2023-03-30T08:36:13.696Z,1006.33
2023-03-30T08:37:14.011Z,1006.36
2023-03-30T08:38:13.341Z,1006.34
2023-03-30T08:39:13.344Z,1006.24
2023-03-30T08:40:13.342Z,1006.44
2023-03-30T08:41:13.319Z,1006.34
2023-03-30T08:42:13.660Z,1006.44
2023-03-30T08:43:13.653Z,1006.52
2023-03-30T08:44:13.681Z,1006.42
2023-03-30T08:45:13.559Z,1006.46
2023-03-30T08:46:13.740Z,1006.41
2023-03-30T08:47:13.884Z,1006.49
2023-03-30T08:48:13.187Z,1006.49
2023-03-30T08:49:13.407Z,1006.50
2023-03-30T08:50:13.328Z,1006.48
2023-03-30T08:51:13.187Z,1006.52
2023-03-30T08:52:13.129Z,1006.45
2023-03-30T08:53:13.096Z,1006.42
2023-03-30T08:54:13.308Z,1006.48
2023-03-30T08:55:13.340Z,1006.46
2023-03-30T08:56:13.415Z,1006.50
2023-03-30T08:57:13.726Z,1006.45
2023-03-30T08:58:14.149Z,1006.49
2023-03-30T08:59:13.557Z,1006.51
2023-03-30T09:00:13.580Z,1006.53
2023-03-30T09:01:13.682Z,1006.59
2023-03-30T09:02:13.617Z,1006.59
2023-03-30T09:03:13.784Z,1006.56
2023-03-30T09:04:13.928Z,1006.59
2023-03-30T09:05:13.216Z,1006.58
2023-03-30T09:06:13.419Z,1006.64
2023-03-30T09:07:13.565Z,1006.57
2023-03-30T09:08:13.740Z,1006.48
2023-03-30T09:09:13.773Z,1006.59
2023-03-30T09:10:13.721Z,1006.52
2023-03-30T09:11:13.702Z,1006.39
2023-03-30T09:12:13.603Z,1006.49
2023-03-30T09:13:13.734Z,1006.47
2023-03-30T09:14:13.649Z,1006.70
2023-03-30T09:15:13.911Z,1006.51
2023-03-30T09:16:12.836Z,1006.53
2023-03-30T09:17:13.669Z,1006.66
2023-03-30T09:18:13.874Z,1006.60
2023-03-30T09:19:12.817Z,1006.66
2023-03-30T09:20:13.681Z,1006.66
2023-03-30T09:21:14.108Z,1006.55
2023-03-30T09:22:13.678Z,1006.72
2023-03-30T09:23:13.656Z,1006.61
2023-03-30T09:24:13.557Z,1006.63
2023-03-30T09:25:13.689Z,1006.69
2023-03-30T09:26:13.677Z,1006.67
2023-03-30T09:27:13.610Z,1006.68
2023-03-30T09:28:13.747Z,1006.56
2023-03-30T09:29:13.697Z,1006.72
2023-03-30T09:30:13.609Z,1006.55
2023-03-30T09:31:13.712Z,1006.73
2023-03-30T09:32:13.898Z,1006.72
2023-03-30T09:33:12.967Z,1006.67
2023-03-30T09:34:14.377Z,1006.79
2023-03-30T09:35:13.480Z,1006.73
2023-03-30T09:36:13.621Z,1006.74
2023-03-30T09:37:13.653Z,1006.76
2023-03-30T09:38:13.684Z,1006.63
2023-03-30T09:39:13.961Z,1006.78
2023-03-30T09:40:12.934Z,1006.69
2023-03-30T09:41:12.873Z,1006.83
2023-03-30T09:42:13.868Z,1006.77
2023-03-30T09:43:12.959Z,1006.77
2023-03-30T09:44:12.997Z,1006.82
2023-03-30T09:45:12.876Z,1006.82
2023-03-30T09:46:13.809Z,1006.74
2023-03-30T09:47:13.872Z,1006.82
2023-03-30T09:48:13.198Z,1006.69
2023-03-30T09:49:13.218Z,1006.69
2023-03-30T09:50:13.176Z,1006.78
2023-03-30T09:51:12.967Z,1006.83
2023-03-30T09:52:12.957Z,1006.64
2023-03-30T09:53:17.960Z,1006.78
2023-03-30T09:54:12.871Z,1006.88
2023-03-30T09:55:15.127Z,1006.80
2023-03-30T09:56:13.172Z,1006.81
2023-03-30T09:57:13.282Z,1006.80
2023-03-30T09:58:13.392Z,1006.94
2023-03-30T09:59:13.643Z,1006.69
2023-03-30T10:00:13.590Z,1006.61
2023-03-30T10:01:13.570Z,1006.68
2023-03-30T10:02:13.666Z,1006.81
2023-03-30T10:03:13.730Z,1006.78
2023-03-30T10:04:13.906Z,1006.70
2023-03-30T10:05:12.865Z,1006.78
2023-03-30T10:06:14.260Z,1006.86
2023-03-30T10:07:18.921Z,1006.77
2023-03-30T10:08:13.329Z,1006.85
2023-03-30T10:09:13.334Z,1007.03
2023-03-30T10:10:13.405Z,1007.03
2023-03-30T10:11:13.545Z,1007.37
2023-03-30T10:12:13.636Z,1007.01
2023-03-30T10:13:13.671Z,1007.13
2023-03-30T10:14:13.609Z,1007.20
2023-03-30T10:15:13.688Z,1007.12
2023-03-30T10:16:13.631Z,1007.24
2023-03-30T10:17:13.848Z,1007.23
2023-03-30T10:18:12.842Z,1007.32
2023-03-30T10:19:13.861Z,1007.19
2023-03-30T10:20:14.404Z,1007.26
2023-03-30T10:21:13.538Z,1007.30
2023-03-30T10:22:13.407Z,1007.23
2023-03-30T10:23:13.720Z,1007.33
2023-03-30T10:24:13.820Z,1007.26
2023-03-30T10:25:13.769Z,1007.25
2023-03-30T10:26:14.214Z,1007.31
2023-03-30T10:27:13.358Z,1007.33
2023-03-30T10:28:13.250Z,1007.37
2023-03-30T10:29:13.495Z,1007.40
2023-03-30T10:30:13.739Z,1007.47
2023-03-30T10:31:13.808Z,1007.54
2023-03-30T10:32:13.993Z,1007.41
2023-03-30T10:33:12.792Z,1007.55
2023-03-30T10:34:13.843Z,1007.61
2023-03-30T10:35:13.810Z,1007.57
2023-03-30T10:36:13.848Z,1007.63
2023-03-30T10:37:13.742Z,1007.71
2023-03-30T10:38:13.609Z,1007.77
2023-03-30T10:39:13.465Z,1007.73
2023-03-30T10:40:13.291Z,1007.69
2023-03-30T10:41:13.174Z,1007.64
2023-03-30T10:42:13.125Z,1007.69
2023-03-30T10:43:13.052Z,1007.63
2023-03-30T10:44:13.117Z,1007.57
2023-03-30T10:45:13.126Z,1007.63
2023-03-30T10:46:19.787Z,1007.65
2023-03-30T10:47:13.535Z,1007.56
2023-03-30T10:48:13.607Z,1007.57
2023-03-30T10:49:13.982Z,1007.59
2023-03-30T10:50:13.025Z,1007.57
2023-03-30T10:51:13.022Z,1007.63
2023-03-30T10:52:13.129Z,1007.57
2023-03-30T10:53:13.085Z,1007.47
2023-03-30T10:54:13.220Z,1007.51
2023-03-30T10:55:13.101Z,1007.54
2023-03-30T10:56:13.003Z,1007.39
2023-03-30T10:57:13.222Z,1007.47
2023-03-30T10:58:13.161Z,1007.45
2023-03-30T10:59:12.991Z,1007.42
2023-03-30T11:00:12.981Z,1007.44
2023-03-30T11:01:13.075Z,1007.32
2023-03-30T11:02:13.049Z,1007.30
2023-03-30T11:03:13.001Z,1007.40
2023-03-30T11:04:23.096Z,1007.33
2023-03-30T11:05:13.658Z,1007.44
2023-03-30T11:06:13.788Z,1007.38
2023-03-30T11:07:14.079Z,1007.38
2023-03-30T11:08:13.291Z,1007.29
2023-03-30T11:09:13.320Z,1007.34
2023-03-30T11:10:13.497Z,1007.29
2023-03-30T11:11:13.827Z,1007.31
2023-03-30T11:12:14.177Z,1007.37
2023-03-30T11:13:13.109Z,1007.40
2023-03-30T11:14:13.181Z,1007.48
2023-03-30T11:15:13.296Z,1007.35
2023-03-30T11:16:13.740Z,1007.42
2023-03-30T11:17:14.006Z,1007.44
2023-03-30T11:18:12.978Z,1007.29
2023-03-30T11:19:13.013Z,1007.43
2023-03-30T11:20:12.995Z,1007.40
2023-03-30T11:21:12.930Z,1007.45
2023-03-30T11:22:13.268Z,1007.45
2023-03-30T11:23:13.402Z,1007.35
2023-03-30T11:24:13.364Z,1007.46
2023-03-30T11:25:13.545Z,1007.49
2023-03-30T11:26:13.362Z,1007.49
2023-03-30T11:27:13.366Z,1007.48
2023-03-30T11:28:13.300Z,1007.33
2023-03-30T11:29:13.240Z,1007.56
2023-03-30T11:30:13.320Z,1007.48
2023-03-30T11:31:13.546Z,1007.49
2023-03-30T11:32:13.494Z,1007.48
2023-03-30T11:33:13.745Z,1007.49
2023-03-30T11:34:13.885Z,1007.39
2023-03-30T11:35:12.884Z,1007.45
2023-03-30T11:36:13.233Z,1007.45
2023-03-30T11:37:13.881Z,1007.52
2023-03-30T11:38:13.017Z,1007.48
2023-03-30T11:39:24.958Z,1007.35
2023-03-30T11:40:13.308Z,1007.45
2023-03-30T11:41:13.357Z,1007.35
2023-03-30T11:42:13.272Z,1007.44
2023-03-30T11:43:13.095Z,1007.47
2023-03-30T11:44:13.443Z,1007.55
2023-03-30T11:45:13.581Z,1007.53
2023-03-30T11:46:13.433Z,1007.55
2023-03-30T11:47:13.312Z,1007.47
2023-03-30T11:48:13.201Z,1007.39
2023-03-30T11:49:13.519Z,1007.48
2023-03-30T11:50:13.743Z,1007.29
2023-03-30T11:51:13.773Z,1007.33
2023-03-30T11:52:15.590Z,1007.39
2023-03-30T11:53:13.484Z,1007.41
2023-03-30T11:54:13.662Z,1007.27
2023-03-30T11:55:14.265Z,1007.33
2023-03-30T11:56:13.499Z,1007.32
2023-03-30T11:57:13.700Z,1007.30
2023-03-30T11:58:13.624Z,1007.27
2023-03-30T11:59:13.726Z,1007.34
2023-03-30T12:00:13.542Z,1007.36
2023-03-30T12:01:13.470Z,1007.39
2023-03-30T12:02:13.507Z,1007.45
2023-03-30T12:03:13.826Z,1007.25
2023-03-30T12:04:12.982Z,1007.23
2023-03-30T12:05:13.180Z,1007.31
2023-03-30T12:06:13.198Z,1007.44